Time;durP1;ratioP1;P1;durP2;ratioP2;P2;SDS_P1;SDS_P2;PMS_P1;PMS_P2;Temp;Humidity;BMP_temperature;BMP_pressure;BME280_temperature;BME280_humidity;BME280_pressure;Samples;Min_cycle;Max_cycle;Signal;HPM_P1;HPM_P2
2023/01/09 00:00:52;;;;;;;53.17;22.93;;;;;;;;;;4974765;28;20218;-47
2023/01/09 00:03:24;;;;;;;53.37;23.53;;;;;;;;;;4974714;28;20227;-46
2023/01/09 00:05:52;;;;;;;43.90;20.97;;;;;;;;;;4974619;28;20211;-47
2023/01/09 00:08:19;;;;;;;49.30;22.97;;;;;;;;;;4976084;28;20222;-45
2023/01/09 00:10:48;;;;;;;65.23;27.77;;;;;;;;;;4977808;28;20769;-46
2023/01/09 00:13:16;;;;;;;57.60;25.77;;;;;;;;;;4978161;28;20273;-46
2023/01/09 00:15:44;;;;;;;81.13;37.77;;;;;;;;;;4977782;28;20664;-45
2023/01/09 00:18:11;;;;;;;46.57;31.17;;;;;;;;;;4977930;28;20217;-46
2023/01/09 00:20:39;;;;;;;76.70;33.27;;;;;;;;;;4977860;28;20203;-46
2023/01/09 00:23:06;;;;;;;38.40;20.87;;;;;;;;;;4977692;28;20210;-48
2023/01/09 00:25:33;;;;;;;55.93;23.27;;;;;;;;;;4977692;28;20210;-46
2023/01/09 00:28:00;;;;;;;52.03;23.30;;;;;;;;;;4977851;28;20215;-47
2023/01/09 00:30:28;;;;;;;48.63;22.87;;;;;;;;;;4992923;28;20234;-45
2023/01/09 00:32:55;;;;;;;50.47;22.10;;;;;;;;;;4977641;28;20636;-46
2023/01/09 00:35:24;;;;;;;43.27;21.23;;;;;;;;;;4977554;28;20247;-45
2023/01/09 00:37:51;;;;;;;81.03;31.53;;;;;;;;;;4977364;28;20211;-47
2023/01/09 00:40:19;;;;;;;74.80;32.83;;;;;;;;;;4977547;28;20203;-45
2023/01/09 00:42:52;;;;;;;47.20;22.97;;;;;;;;;;4977587;28;20214;-46
2023/01/09 00:45:27;;;;;;;68.27;25.20;;;;;;;;;;4977501;28;20206;-45
2023/01/09 00:47:59;;;;;;;53.70;21.20;;;;;;;;;;4977332;28;20238;-45
2023/01/09 00:50:29;;;;;;;46.30;27.43;;;;;;;;;;4977021;28;20764;-46
2023/01/09 00:52:58;;;;;;;39.20;22.67;;;;;;;;;;4976227;28;20231;-47
2023/01/09 00:55:26;;;;;;;34.93;19.57;;;;;;;;;;4976421;28;20219;-46
2023/01/09 00:57:54;;;;;;;49.27;22.37;;;;;;;;;;4977136;28;20297;-47
2023/01/09 01:00:21;;;;;;;58.40;23.27;;;;;;;;;;4977284;28;20210;-45
2023/01/09 01:02:48;;;;;;;49.60;22.70;;;;;;;;;;4976999;28;20545;-46
2023/01/09 01:08:01;;;;;;;39.00;20.10;;;;;;;;;;4977479;28;20203;-48
2023/01/09 01:10:28;;;;;;;37.87;20.53;;;;;;;;;;4977058;28;20230;-45
2023/01/09 01:12:55;;;;;;;44.03;23.77;;;;;;;;;;4976853;28;20237;-45
2023/01/09 01:15:24;;;;;;;49.30;22.57;;;;;;;;;;4976887;28;20273;-45
2023/01/09 01:17:51;;;;;;;119.10;46.17;;;;;;;;;;4976850;28;20218;-47
2023/01/09 01:20:18;;;;;;;36.57;22.83;;;;;;;;;;4976178;28;20246;-46
2023/01/09 01:22:46;;;;;;;46.43;23.60;;;;;;;;;;4976700;28;20221;-45
2023/01/09 01:25:15;;;;;;;68.90;24.53;;;;;;;;;;4976573;28;20207;-47
2023/01/09 01:27:43;;;;;;;56.97;23.60;;;;;;;;;;4976453;28;20218;-46
2023/01/09 01:30:12;;;;;;;50.33;21.97;;;;;;;;;;4976603;28;20249;-46
2023/01/09 01:32:39;;;;;;;45.47;20.27;;;;;;;;;;4976636;28;20600;-45
2023/01/09 01:35:07;;;;;;;47.37;20.53;;;;;;;;;;4976343;28;20631;-46
2023/01/09 01:37:36;;;;;;;39.00;19.43;;;;;;;;;;4976322;28;20632;-46
2023/01/09 01:40:06;;;;;;;73.53;31.40;;;;;;;;;;4976359;28;20211;-47
2023/01/09 01:42:33;;;;;;;47.43;23.03;;;;;;;;;;4976594;28;20203;-46
2023/01/09 01:45:13;;;;;;;71.80;23.73;;;;;;;;;;4975647;28;20214;-49
2023/01/09 01:47:40;;;;;;;82.10;25.20;;;;;;;;;;4976675;28;20273;-47
2023/01/09 01:50:21;;;;;;;98.83;49.30;;;;;;;;;;4976131;28;20226;-46
2023/01/09 01:52:55;;;;;;;38.37;24.83;;;;;;;;;;4976081;28;20210;-46
2023/01/09 01:55:22;;;;;;;39.73;21.30;;;;;;;;;;4976231;28;20212;-46
2023/01/09 01:57:54;;;;;;;42.10;21.10;;;;;;;;;;4975283;28;20286;-46
2023/01/09 02:00:26;;;;;;;42.87;19.70;;;;;;;;;;4975157;28;20210;-46
2023/01/09 02:02:53;;;;;;;41.03;20.07;;;;;;;;;;4975144;28;20234;-46
2023/01/09 02:05:20;;;;;;;38.30;18.67;;;;;;;;;;4975831;28;20622;-45
2023/01/09 02:07:48;;;;;;;33.80;18.07;;;;;;;;;;4975976;28;20293;-48
2023/01/09 02:10:15;;;;;;;40.57;18.97;;;;;;;;;;4975892;28;20273;-46
2023/01/09 02:12:42;;;;;;;67.50;32.93;;;;;;;;;;4974981;28;20257;-45
2023/01/09 02:15:12;;;;;;;44.87;22.17;;;;;;;;;;4975938;28;20548;-46
2023/01/09 02:17:42;;;;;;;71.67;25.03;;;;;;;;;;4975917;28;20236;-46
2023/01/09 02:20:34;;;;;;;56.93;21.67;;;;;;;;;;4974635;28;20211;-46
2023/01/09 02:23:04;;;;;;;53.17;21.73;;;;;;;;;;4975689;28;20656;-47
2023/01/09 02:25:58;;;;;;;54.67;32.83;;;;;;;;;;4975808;28;20203;-46
2023/01/09 02:28:32;;;;;;;37.70;24.43;;;;;;;;;;4975726;28;20242;-45
2023/01/09 02:31:13;;;;;;;72.07;25.67;;;;;;;;;;4974874;28;20234;-45
2023/01/09 02:34:03;;;;;;;40.80;19.80;;;;;;;;;;4974616;28;20206;-45
2023/01/09 02:36:46;;;;;;;41.97;19.67;;;;;;;;;;4974488;28;20234;-46
2023/01/09 02:39:25;;;;;;;38.77;18.43;;;;;;;;;;4974319;28;20199;-45
2023/01/09 02:41:58;;;;;;;33.27;17.57;;;;;;;;;;4974554;28;20587;-45
2023/01/09 02:44:27;;;;;;;32.73;17.07;;;;;;;;;;4974432;28;20210;-46
2023/01/09 02:47:28;;;;;;;118.00;51.80;;;;;;;;;;4975408;28;20210;-46
2023/01/09 02:49:57;;;;;;;49.47;21.63;;;;;;;;;;4975144;28;20210;-45
2023/01/09 02:52:40;;;;;;;105.10;36.10;;;;;;;;;;4975288;28;20215;-47
2023/01/09 02:55:42;;;;;;;31.13;18.73;;;;;;;;;;4975531;28;20312;-45
2023/01/09 02:58:49;;;;;;;45.33;21.20;;;;;;;;;;4939941;28;20227;-46
2023/01/09 03:01:32;;;;;;;66.10;22.90;;;;;;;;;;4974353;28;20301;-46
2023/01/09 03:04:37;;;;;;;44.50;19.13;;;;;;;;;;4975025;28;20233;-45
2023/01/09 03:07:07;;;;;;;35.43;17.07;;;;;;;;;;4975364;28;20628;-46
2023/01/09 03:09:36;;;;;;;34.87;17.60;;;;;;;;;;4974964;28;20202;-45
2023/01/09 03:12:17;;;;;;;33.47;16.70;;;;;;;;;;4974059;28;20297;-47
2023/01/09 03:14:50;;;;;;;49.67;19.40;;;;;;;;;;4975166;28;20230;-46
2023/01/09 03:17:25;;;;;;;42.93;19.67;;;;;;;;;;4975123;28;20226;-46
2023/01/09 03:19:53;;;;;;;53.50;22.23;;;;;;;;;;4974132;28;20682;-47
2023/01/09 03:22:20;;;;;;;60.77;19.87;;;;;;;;;;4967945;28;20200;-49
2023/01/09 03:24:47;;;;;;;104.07;43.67;;;;;;;;;;4955512;28;20625;-46
2023/01/09 03:27:14;;;;;;;28.37;18.53;;;;;;;;;;4955839;29;20219;-45
2023/01/09 03:29:41;;;;;;;42.17;20.67;;;;;;;;;;4954733;29;20282;-45
2023/01/09 03:32:08;;;;;;;49.53;20.60;;;;;;;;;;4955559;28;20723;-45
2023/01/09 03:34:36;;;;;;;41.90;18.93;;;;;;;;;;4955417;28;20239;-47
2023/01/09 03:37:03;;;;;;;34.97;17.17;;;;;;;;;;4955470;28;20216;-45
2023/01/09 03:39:31;;;;;;;31.03;16.87;;;;;;;;;;4955735;28;20279;-49
2023/01/09 03:41:58;;;;;;;39.63;16.23;;;;;;;;;;4955346;28;20617;-46
2023/01/09 03:44:25;;;;;;;35.60;16.73;;;;;;;;;;4958950;28;20636;-46
2023/01/09 03:46:52;;;;;;;47.73;20.00;;;;;;;;;;4959092;28;20262;-47
2023/01/09 03:49:20;;;;;;;47.27;22.57;;;;;;;;;;4958909;28;20207;-46
2023/01/09 03:51:47;;;;;;;43.23;19.03;;;;;;;;;;4958864;28;20318;-45
2023/01/09 03:54:14;;;;;;;102.93;38.83;;;;;;;;;;4958760;28;20755;-45
2023/01/09 03:56:41;;;;;;;57.03;43.30;;;;;;;;;;4959089;28;20298;-46
2023/01/09 03:59:09;;;;;;;40.97;20.47;;;;;;;;;;4959090;28;20211;-46
2023/01/09 04:01:35;;;;;;;37.03;17.43;;;;;;;;;;4959059;28;20207;-45
2023/01/09 04:04:03;;;;;;;60.90;21.40;;;;;;;;;;4958683;28;20645;-46
2023/01/09 04:06:30;;;;;;;39.30;17.37;;;;;;;;;;4958831;28;20211;-47
2023/01/09 04:08:57;;;;;;;45.73;18.33;;;;;;;;;;4958819;28;20215;-46
2023/01/09 04:11:24;;;;;;;43.63;18.33;;;;;;;;;;4958629;28;20235;-46
2023/01/09 04:13:51;;;;;;;33.63;16.37;;;;;;;;;;4958859;28;20222;-47
2023/01/09 04:16:18;;;;;;;188.43;76.37;;;;;;;;;;4958576;28;20211;-46
2023/01/09 04:18:46;;;;;;;75.30;30.80;;;;;;;;;;4958478;28;20215;-47
2023/01/09 04:21:13;;;;;;;78.67;25.93;;;;;;;;;;4958683;28;20289;-45
2023/01/09 04:23:40;;;;;;;72.17;24.33;;;;;;;;;;4958477;28;20243;-49
2023/01/09 04:26:07;;;;;;;43.10;18.83;;;;;;;;;;4958448;28;20219;-46
2023/01/09 04:28:34;;;;;;;49.83;18.97;;;;;;;;;;4958259;28;20216;-46
2023/01/09 04:31:01;;;;;;;72.07;55.93;;;;;;;;;;4958245;28;20223;-47
2023/01/09 04:33:28;;;;;;;54.80;28.97;;;;;;;;;;4958155;28;20215;-45
2023/01/09 04:35:55;;;;;;;43.87;21.50;;;;;;;;;;4958443;28;20322;-47
2023/01/09 04:38:23;;;;;;;32.70;16.27;;;;;;;;;;4958369;28;20224;-46
2023/01/09 04:40:50;;;;;;;38.90;17.77;;;;;;;;;;4958262;28;20215;-46
2023/01/09 04:43:17;;;;;;;33.57;15.83;;;;;;;;;;4958068;28;20215;-46
2023/01/09 04:45:44;;;;;;;32.23;15.43;;;;;;;;;;4957986;28;20215;-45
2023/01/09 04:48:12;;;;;;;29.20;15.10;;;;;;;;;;4957889;28;20211;-45
2023/01/09 04:50:39;;;;;;;25.40;13.83;;;;;;;;;;4958048;28;20204;-46
2023/01/09 04:53:06;;;;;;;42.47;24.77;;;;;;;;;;4968816;28;20222;-46
2023/01/09 04:55:33;;;;;;;35.60;18.37;;;;;;;;;;4976391;28;20218;-47
2023/01/09 04:58:00;;;;;;;41.63;17.83;;;;;;;;;;4974106;28;20615;-50
2023/01/09 05:00:27;;;;;;;47.87;33.40;;;;;;;;;;4969236;28;20265;-47
2023/01/09 05:02:55;;;;;;;25.83;19.23;;;;;;;;;;4976172;28;20292;-46
2023/01/09 05:05:22;;;;;;;31.90;16.80;;;;;;;;;;4975933;28;20246;-46
2023/01/09 05:07:50;;;;;;;46.87;28.20;;;;;;;;;;4970601;28;20239;-46
2023/01/09 05:10:17;;;;;;;57.37;32.60;;;;;;;;;;4957582;28;20275;-46
2023/01/09 05:12:44;;;;;;;35.33;16.50;;;;;;;;;;4967149;28;20231;-51
2023/01/09 05:15:11;;;;;;;37.77;17.30;;;;;;;;;;4972824;28;20238;-47
2023/01/09 05:17:38;;;;;;;39.57;17.03;;;;;;;;;;4975387;28;20722;-46
2023/01/09 05:20:06;;;;;;;28.30;15.60;;;;;;;;;;4976210;28;20234;-46
2023/01/09 05:22:33;;;;;;;75.57;34.37;;;;;;;;;;4975995;28;20239;-47
2023/01/09 05:25:00;;;;;;;47.30;22.30;;;;;;;;;;4976063;28;20257;-49
2023/01/09 05:27:29;;;;;;;88.10;41.67;;;;;;;;;;4975856;28;20258;-47
2023/01/09 05:29:56;;;;;;;32.07;23.33;;;;;;;;;;4975473;28;20699;-47
2023/01/09 05:32:23;;;;;;;60.80;27.17;;;;;;;;;;4975584;28;20717;-46
2023/01/09 05:34:50;;;;;;;45.93;19.80;;;;;;;;;;4975052;28;20664;-49
2023/01/09 05:37:17;;;;;;;48.67;19.77;;;;;;;;;;4974762;28;20723;-47
2023/01/09 05:39:44;;;;;;;35.57;16.30;;;;;;;;;;4975578;28;20262;-46
2023/01/09 05:42:11;;;;;;;33.30;15.87;;;;;;;;;;4975510;28;20265;-46
2023/01/09 05:44:38;;;;;;;33.83;15.53;;;;;;;;;;4974613;28;20596;-46
2023/01/09 05:47:06;;;;;;;29.70;14.43;;;;;;;;;;4974120;28;20234;-49
2023/01/09 05:49:33;;;;;;;34.83;15.00;;;;;;;;;;4974560;28;20218;-48
2023/01/09 05:52:00;;;;;;;39.87;22.37;;;;;;;;;;4974870;28;20234;-48
2023/01/09 05:54:27;;;;;;;29.67;16.00;;;;;;;;;;4973925;28;20242;-50
2023/01/09 05:56:54;;;;;;;66.53;30.33;;;;;;;;;;4973596;28;20293;-46
2023/01/09 05:59:21;;;;;;;52.10;38.30;;;;;;;;;;4973276;28;20258;-47
2023/01/09 06:01:49;;;;;;;35.90;19.50;;;;;;;;;;4973529;28;20238;-47
2023/01/09 06:04:16;;;;;;;47.97;19.57;;;;;;;;;;4973339;28;20279;-50
2023/01/09 06:06:43;;;;;;;44.17;17.97;;;;;;;;;;4973787;28;20214;-47
2023/01/09 06:09:10;;;;;;;39.43;16.33;;;;;;;;;;4974339;28;20253;-47
2023/01/09 06:11:38;;;;;;;39.17;16.27;;;;;;;;;;4975553;28;20258;-46
2023/01/09 06:14:05;;;;;;;34.70;14.80;;;;;;;;;;4974707;28;20285;-48
2023/01/09 06:16:32;;;;;;;41.37;16.67;;;;;;;;;;4974412;28;20643;-47
2023/01/09 06:18:59;;;;;;;39.20;15.93;;;;;;;;;;4974227;28;20590;-48
2023/01/09 06:21:28;;;;;;;26.77;15.20;;;;;;;;;;4974411;28;20218;-45
2023/01/09 06:23:55;;;;;;;38.17;16.30;;;;;;;;;;4974098;28;20213;-46
2023/01/09 06:26:24;;;;;;;51.70;18.40;;;;;;;;;;4974239;28;20547;-48
2023/01/09 06:28:51;;;;;;;37.40;30.00;;;;;;;;;;4969238;28;20226;-48
2023/01/09 06:31:19;;;;;;;37.80;23.00;;;;;;;;;;4974321;28;20226;-48
2023/01/09 06:33:46;;;;;;;25.90;14.33;;;;;;;;;;4974329;28;20207;-46
2023/01/09 06:36:13;;;;;;;43.20;16.70;;;;;;;;;;4975273;28;20206;-47
2023/01/09 06:38:41;;;;;;;39.20;16.53;;;;;;;;;;4975336;28;20218;-47
2023/01/09 06:41:08;;;;;;;35.07;16.17;;;;;;;;;;4975100;28;20211;-48
2023/01/09 06:43:35;;;;;;;28.67;13.73;;;;;;;;;;4974804;28;20218;-46
2023/01/09 06:46:04;;;;;;;33.97;15.57;;;;;;;;;;4975206;28;20639;-45
2023/01/09 06:48:32;;;;;;;32.07;14.37;;;;;;;;;;4975149;28;20211;-47
2023/01/09 06:50:59;;;;;;;89.87;39.33;;;;;;;;;;4973800;28;20206;-47
2023/01/09 06:53:27;;;;;;;38.90;19.33;;;;;;;;;;4973473;28;20249;-47
2023/01/09 06:55:54;;;;;;;61.67;20.00;;;;;;;;;;4975011;28;20269;-46
2023/01/09 06:58:21;;;;;;;50.93;30.03;;;;;;;;;;4974960;28;20214;-47
2023/01/09 07:00:48;;;;;;;25.53;17.10;;;;;;;;;;4974304;28;20229;-46
2023/01/09 07:03:20;;;;;;;23.23;14.47;;;;;;;;;;4973975;28;20202;-46
2023/01/09 07:05:48;;;;;;;61.00;21.13;;;;;;;;;;4975256;28;20211;-46
2023/01/09 07:08:15;;;;;;;37.57;16.33;;;;;;;;;;4974879;28;20619;-46
2023/01/09 07:10:43;;;;;;;39.47;16.03;;;;;;;;;;4974238;28;20281;-47
2023/01/09 07:13:10;;;;;;;29.93;14.37;;;;;;;;;;4974484;28;20236;-46
2023/01/09 07:15:37;;;;;;;33.63;14.30;;;;;;;;;;4975003;28;20214;-46
2023/01/09 07:18:04;;;;;;;26.30;13.83;;;;;;;;;;4975584;28;20663;-46
2023/01/09 07:20:32;;;;;;;78.33;42.07;;;;;;;;;;4976721;28;20714;-45
2023/01/09 07:22:59;;;;;;;28.90;16.23;;;;;;;;;;4979015;28;20604;-45
2023/01/09 07:25:26;;;;;;;52.03;18.53;;;;;;;;;;4978493;28;20210;-48
2023/01/09 07:27:53;;;;;;;81.37;31.57;;;;;;;;;;4978671;28;20281;-45
2023/01/09 07:30:20;;;;;;;24.87;18.43;;;;;;;;;;4978595;28;20602;-48
2023/01/09 07:32:47;;;;;;;54.97;24.20;;;;;;;;;;4978853;28;20268;-46
2023/01/09 07:35:15;;;;;;;93.33;24.87;;;;;;;;;;4978882;28;20222;-47
2023/01/09 07:37:42;;;;;;;45.70;17.43;;;;;;;;;;4978144;28;20238;-46
2023/01/09 07:40:09;;;;;;;44.97;16.90;;;;;;;;;;4978162;28;20221;-45
2023/01/09 07:42:36;;;;;;;34.60;16.27;;;;;;;;;;4978801;28;20245;-47
2023/01/09 07:45:05;;;;;;;33.60;14.70;;;;;;;;;;4977635;28;20206;-45
2023/01/09 07:47:32;;;;;;;32.27;15.17;;;;;;;;;;4978401;28;20207;-46
2023/01/09 07:49:59;;;;;;;44.33;16.80;;;;;;;;;;4978867;28;20214;-46
2023/01/09 07:52:26;;;;;;;53.47;26.10;;;;;;;;;;4978201;28;20251;-48
2023/01/09 07:54:54;;;;;;;63.33;20.10;;;;;;;;;;4961823;28;20604;-46
2023/01/09 07:57:21;;;;;;;64.33;19.20;;;;;;;;;;4959215;28;20207;-49
2023/01/09 07:59:48;;;;;;;46.40;29.27;;;;;;;;;;4957649;28;20564;-46
2023/01/09 08:02:16;;;;;;;25.27;16.70;;;;;;;;;;4958257;28;20301;-48
2023/01/09 08:04:44;;;;;;;36.10;17.47;;;;;;;;;;4958662;28;20219;-46
2023/01/09 08:07:11;;;;;;;49.63;19.57;;;;;;;;;;4958742;28;20242;-46
2023/01/09 08:09:38;;;;;;;50.20;17.80;;;;;;;;;;4958701;28;20516;-46
2023/01/09 08:12:05;;;;;;;39.17;16.80;;;;;;;;;;4959102;28;20282;-46
2023/01/09 08:14:34;;;;;;;29.23;14.97;;;;;;;;;;4958429;28;20211;-46
2023/01/09 08:17:01;;;;;;;31.23;13.83;;;;;;;;;;4958815;28;20211;-47
2023/01/09 08:19:29;;;;;;;27.87;13.97;;;;;;;;;;4958498;28;20551;-46
2023/01/09 08:21:56;;;;;;;55.33;29.77;;;;;;;;;;4958759;28;20207;-48
2023/01/09 08:24:23;;;;;;;53.63;22.40;;;;;;;;;;4958685;28;20207;-46
2023/01/09 08:26:50;;;;;;;56.20;18.80;;;;;;;;;;4958291;28;20219;-47
2023/01/09 08:29:17;;;;;;;83.37;38.07;;;;;;;;;;4957687;28;20219;-46
2023/01/09 08:31:44;;;;;;;31.13;22.57;;;;;;;;;;4958603;28;20227;-47
2023/01/09 08:34:12;;;;;;;65.93;28.77;;;;;;;;;;4958279;28;20223;-47
2023/01/09 08:36:39;;;;;;;37.53;17.63;;;;;;;;;;4958289;28;20267;-46
2023/01/09 08:39:06;;;;;;;63.30;22.07;;;;;;;;;;4957979;28;20207;-47
2023/01/09 08:47:04;;;;;;;26.93;14.33;;;;;;;;;;4956580;28;20195;-48
2023/01/09 08:49:37;;;;;;;30.67;15.47;;;;;;;;;;4940046;29;20220;-48
2023/01/09 08:52:05;;;;;;;99.57;46.03;;;;;;;;;;4958013;28;20227;-46
2023/01/09 08:54:35;;;;;;;35.03;18.73;;;;;;;;;;4957802;28;20243;-46
2023/01/09 08:57:02;;;;;;;57.93;22.83;;;;;;;;;;4957703;28;20306;-49
2023/01/09 08:59:29;;;;;;;48.77;19.17;;;;;;;;;;4957759;28;20223;-47
2023/01/09 09:01:57;;;;;;;30.00;19.87;;;;;;;;;;4957571;28;20211;-48
2023/01/09 09:04:24;;;;;;;43.00;23.83;;;;;;;;;;4956083;28;20278;-49
2023/01/09 09:06:51;;;;;;;24.73;14.47;;;;;;;;;;4957564;28;20237;-47
2023/01/09 09:09:19;;;;;;;28.83;14.50;;;;;;;;;;4957324;28;20270;-48
2023/01/09 09:11:46;;;;;;;40.23;17.30;;;;;;;;;;4957533;28;20203;-46
2023/01/09 09:16:58;;;;;;;18.77;11.90;;;;;;;;;;4957537;28;20222;-48
2023/01/09 09:19:26;;;;;;;27.53;13.90;;;;;;;;;;4955940;28;20211;-48
2023/01/09 09:21:53;;;;;;;26.10;13.37;;;;;;;;;;4956098;28;20215;-46
2023/01/09 09:24:20;;;;;;;26.57;16.73;;;;;;;;;;4956270;29;20561;-47
2023/01/09 09:26:47;;;;;;;40.33;16.80;;;;;;;;;;4957368;28;20208;-46
2023/01/09 09:29:15;;;;;;;65.90;21.03;;;;;;;;;;4957212;28;20199;-46
2023/01/09 09:31:42;;;;;;;81.67;62.97;;;;;;;;;;4956711;28;20207;-47
2023/01/09 09:34:11;;;;;;;52.00;27.33;;;;;;;;;;4957409;28;20215;-46
2023/01/09 09:36:38;;;;;;;34.87;18.27;;;;;;;;;;4957193;28;20262;-47
2023/01/09 09:39:07;;;;;;;48.13;19.33;;;;;;;;;;4957536;28;20218;-46
2023/01/09 09:44:52;;;;;;;31.83;14.53;;;;;;;;;;4957001;28;20207;-46
2023/01/09 09:47:30;;;;;;;30.67;15.73;;;;;;;;;;4954365;29;20211;-49
2023/01/09 09:50:15;;;;;;;26.53;13.43;;;;;;;;;;4955936;28;20222;-46
2023/01/09 09:53:00;;;;;;;65.00;28.87;;;;;;;;;;4956298;28;20227;-46
2023/01/09 09:55:28;;;;;;;51.53;22.53;;;;;;;;;;4956814;28;20199;-46
2023/01/09 09:57:55;;;;;;;36.57;16.63;;;;;;;;;;4956750;28;20266;-46
2023/01/09 10:00:23;;;;;;;30.90;15.27;;;;;;;;;;4956032;29;20207;-47
2023/01/09 10:03:20;;;;;;;93.63;42.00;;;;;;;;;;4956633;28;20629;-46
2023/01/09 10:06:03;;;;;;;25.97;18.40;;;;;;;;;;4956591;28;20218;-46
2023/01/09 10:08:45;;;;;;;40.83;20.67;;;;;;;;;;4956577;28;20213;-49
2023/01/09 10:11:21;;;;;;;65.37;20.87;;;;;;;;;;4956730;28;20211;-46
2023/01/09 10:14:21;;;;;;;65.20;22.47;;;;;;;;;;4955825;29;20218;-46
2023/01/09 10:16:56;;;;;;;37.70;16.03;;;;;;;;;;4956493;28;20714;-48
2023/01/09 10:19:46;;;;;;;34.97;15.17;;;;;;;;;;4956318;28;20708;-46
2023/01/09 10:22:24;;;;;;;26.10;13.57;;;;;;;;;;4955393;29;20601;-46
2023/01/09 10:24:59;;;;;;;35.40;16.57;;;;;;;;;;4956372;28;20242;-47
2023/01/09 10:28:02;;;;;;;38.07;20.47;;;;;;;;;;4956572;28;20192;-46
2023/01/09 10:30:44;;;;;;;56.37;19.50;;;;;;;;;;4952265;29;20221;-46
2023/01/09 10:33:33;;;;;;;54.33;18.37;;;;;;;;;;4956082;28;20203;-46
2023/01/09 10:36:23;;;;;;;58.53;39.37;;;;;;;;;;4954914;28;20207;-46
2023/01/09 10:38:55;;;;;;;42.37;19.57;;;;;;;;;;4953183;29;20215;-47
2023/01/09 10:42:12;;;;;;;41.77;17.77;;;;;;;;;;4954953;29;20199;-46
2023/01/09 10:44:47;;;;;;;32.27;14.93;;;;;;;;;;4934769;29;20215;-46
2023/01/09 10:47:21;;;;;;;36.90;15.60;;;;;;;;;;4919293;29;20188;-46
2023/01/09 10:49:49;;;;;;;33.73;14.90;;;;;;;;;;4935062;29;20222;-46
2023/01/09 10:52:19;;;;;;;24.23;13.27;;;;;;;;;;4934185;29;20215;-45
2023/01/09 10:54:55;;;;;;;28.77;13.47;;;;;;;;;;4934750;29;20254;-46
2023/01/09 10:57:41;;;;;;;89.30;40.10;;;;;;;;;;4934993;29;20286;-46
2023/01/09 11:00:22;;;;;;;35.20;17.07;;;;;;;;;;4934980;29;20629;-46
2023/01/09 11:02:51;;;;;;;59.73;20.17;;;;;;;;;;4934924;29;20199;-45
2023/01/09 11:05:21;;;;;;;40.53;16.27;;;;;;;;;;4934924;29;20231;-46
2023/01/09 11:07:53;;;;;;;27.00;13.77;;;;;;;;;;4935150;29;20212;-45
2023/01/09 11:10:20;;;;;;;40.63;21.90;;;;;;;;;;4934906;29;20212;-45
2023/01/09 11:12:50;;;;;;;28.33;15.93;;;;;;;;;;4934799;29;20648;-46
2023/01/09 11:15:18;;;;;;;26.23;16.17;;;;;;;;;;4945476;29;20215;-46
2023/01/09 11:17:46;;;;;;;27.93;13.73;;;;;;;;;;4955640;28;20222;-45
2023/01/09 11:20:17;;;;;;;26.93;14.37;;;;;;;;;;4955650;28;20191;-45
2023/01/09 11:22:49;;;;;;;31.03;14.73;;;;;;;;;;4955459;28;20294;-46
2023/01/09 11:25:19;;;;;;;26.37;12.83;;;;;;;;;;4955154;28;20219;-45
2023/01/09 11:28:15;;;;;;;21.60;12.47;;;;;;;;;;4955533;28;20215;-46
2023/01/09 11:31:01;;;;;;;25.13;13.27;;;;;;;;;;4934581;29;20211;-45
2023/01/09 11:33:32;;;;;;;62.30;33.40;;;;;;;;;;4934666;29;20315;-45
2023/01/09 11:36:09;;;;;;;35.67;17.10;;;;;;;;;;4934642;29;20676;-45
2023/01/09 11:38:56;;;;;;;44.00;16.93;;;;;;;;;;4934656;29;20196;-46
2023/01/09 11:41:29;;;;;;;29.87;20.47;;;;;;;;;;4934526;29;20210;-45
2023/01/09 11:43:58;;;;;;;29.00;17.33;;;;;;;;;;4919008;29;20215;-46
2023/01/09 11:46:33;;;;;;;36.10;17.77;;;;;;;;;;4934584;29;20212;-45
2023/01/09 11:49:07;;;;;;;31.10;15.10;;;;;;;;;;4933955;29;20204;-46
2023/01/09 11:51:35;;;;;;;37.23;16.57;;;;;;;;;;4918530;29;20196;-45
2023/01/09 11:54:24;;;;;;;32.50;16.13;;;;;;;;;;4934106;29;20247;-46
2023/01/09 11:56:52;;;;;;;28.93;15.13;;;;;;;;;;4918057;29;20696;-46
2023/01/09 11:59:22;;;;;;;32.00;16.73;;;;;;;;;;4934370;29;20544;-46
2023/01/09 12:02:15;;;;;;;25.20;13.27;;;;;;;;;;4934309;29;20275;-46
2023/01/09 12:04:55;;;;;;;27.33;16.73;;;;;;;;;;4936571;29;20545;-45
2023/01/09 12:08:05;;;;;;;59.97;21.47;;;;;;;;;;4940373;29;20266;-46
2023/01/09 12:10:56;;;;;;;118.60;37.50;;;;;;;;;;4957558;28;20576;-47
2023/01/09 12:13:45;;;;;;;25.70;18.33;;;;;;;;;;4958263;28;20215;-46
2023/01/09 12:16:18;;;;;;;38.97;21.40;;;;;;;;;;4957790;29;20203;-46
2023/01/09 12:19:04;;;;;;;36.73;17.43;;;;;;;;;;4958670;28;20215;-46
2023/01/09 12:21:38;;;;;;;45.97;20.40;;;;;;;;;;4958278;28;20219;-46
2023/01/09 12:24:20;;;;;;;42.37;16.37;;;;;;;;;;4958077;28;20554;-46
2023/01/09 12:27:21;;;;;;;30.03;15.23;;;;;;;;;;4958508;28;20704;-46
2023/01/09 12:29:58;;;;;;;40.20;19.10;;;;;;;;;;4958298;28;20560;-45
2023/01/09 12:32:41;;;;;;;34.57;16.90;;;;;;;;;;4958329;28;20624;-46
2023/01/09 12:35:30;;;;;;;28.23;17.53;;;;;;;;;;4957419;29;20215;-46
2023/01/09 12:38:04;;;;;;;39.03;19.17;;;;;;;;;;4958256;28;20524;-46
2023/01/09 12:40:41;;;;;;;144.80;50.67;;;;;;;;;;4958213;28;20215;-46
2023/01/09 12:43:38;;;;;;;37.17;28.53;;;;;;;;;;4958366;28;20197;-47
2023/01/09 12:46:21;;;;;;;40.40;22.10;;;;;;;;;;4947439;28;20652;-45
2023/01/09 12:48:57;;;;;;;31.73;16.73;;;;;;;;;;4958101;28;20207;-46
2023/01/09 12:51:42;;;;;;;51.93;20.23;;;;;;;;;;4959836;28;20281;-49
2023/01/09 12:54:14;;;;;;;46.23;19.47;;;;;;;;;;4955665;29;20243;-46
2023/01/09 12:56:48;;;;;;;46.73;18.93;;;;;;;;;;4955787;29;20219;-46
2023/01/09 12:59:32;;;;;;;31.73;16.57;;;;;;;;;;4955897;29;20295;-46
2023/01/09 13:02:09;;;;;;;30.07;16.17;;;;;;;;;;4956864;29;20211;-45
2023/01/09 13:04:40;;;;;;;73.23;36.90;;;;;;;;;;4957798;28;20675;-45
2023/01/09 13:07:17;;;;;;;34.40;19.53;;;;;;;;;;4956383;29;20211;-45
2023/01/09 13:10:06;;;;;;;37.00;17.83;;;;;;;;;;4957066;29;20199;-45
2023/01/09 13:12:36;;;;;;;33.57;16.97;;;;;;;;;;4956932;29;20258;-45
2023/01/09 13:15:24;;;;;;;37.53;23.17;;;;;;;;;;4956185;28;20319;-45
2023/01/09 13:17:54;;;;;;;24.45;16.45;;;;;;;;;;4957423;29;20590;-48
2023/01/09 13:20:28;;;;;;;24.70;16.40;;;;;;;;;;4957422;28;20215;-45
2023/01/09 13:22:55;;;;;;;26.70;16.00;;;;;;;;;;4956624;29;20208;-46
2023/01/09 13:25:40;;;;;;;41.77;18.40;;;;;;;;;;4956583;29;20212;-46
2023/01/09 13:28:34;;;;;;;27.00;15.70;;;;;;;;;;4957084;28;20273;-45
2023/01/09 13:31:24;;;;;;;33.03;17.67;;;;;;;;;;4955177;29;20215;-46
2023/01/09 13:33:54;;;;;;;28.93;16.13;;;;;;;;;;4957103;28;20326;-46
2023/01/09 13:36:28;;;;;;;27.93;14.77;;;;;;;;;;4957315;28;20561;-48
2023/01/09 13:38:56;;;;;;;34.23;18.87;;;;;;;;;;4956461;28;20258;-45
2023/01/09 13:44:18;;;;;;;45.77;23.43;;;;;;;;;;4969228;28;20246;-45
2023/01/09 13:46:47;;;;;;;26.03;18.77;;;;;;;;;;4974995;28;20237;-45
2023/01/09 13:49:40;;;;;;;42.03;22.47;;;;;;;;;;4973478;28;20242;-45
2023/01/09 13:52:33;;;;;;;32.57;17.63;;;;;;;;;;4972913;28;20227;-47
2023/01/09 13:55:03;;;;;;;43.60;20.03;;;;;;;;;;4953368;28;20258;-50
2023/01/09 13:57:35;;;;;;;33.30;17.03;;;;;;;;;;4963657;28;20695;-46
2023/01/09 14:00:06;;;;;;;31.13;16.63;;;;;;;;;;4974725;28;20234;-45
2023/01/09 14:02:37;;;;;;;27.47;16.33;;;;;;;;;;4974632;28;20230;-46
2023/01/09 14:05:24;;;;;;;26.03;14.87;;;;;;;;;;4974901;28;20242;-45
2023/01/09 14:08:01;;;;;;;82.47;39.43;;;;;;;;;;4974661;28;20296;-50
2023/01/09 14:10:33;;;;;;;48.10;21.67;;;;;;;;;;4972104;28;20233;-47
2023/01/09 14:13:05;;;;;;;43.13;20.20;;;;;;;;;;4963267;28;20230;-49
2023/01/09 14:15:38;;;;;;;74.87;37.10;;;;;;;;;;4969682;28;20230;-51
2023/01/09 14:18:22;;;;;;;27.97;18.07;;;;;;;;;;4974765;28;20258;-47
2023/01/09 14:20:56;;;;;;;31.43;19.83;;;;;;;;;;4973151;28;20914;-50
2023/01/09 14:23:25;;;;;;;29.70;17.37;;;;;;;;;;4979915;28;20226;-46
2023/01/09 14:26:23;;;;;;;53.37;23.07;;;;;;;;;;4973714;28;20235;-46
2023/01/09 14:28:51;;;;;;;35.67;17.87;;;;;;;;;;4965161;28;20238;-47
2023/01/09 14:31:36;;;;;;;30.30;16.17;;;;;;;;;;4954725;28;20594;-46
2023/01/09 14:34:29;;;;;;;36.53;17.43;;;;;;;;;;4969647;28;20238;-47
2023/01/09 14:37:00;;;;;;;32.10;16.53;;;;;;;;;;4975057;28;20264;-50
2023/01/09 14:39:30;;;;;;;27.90;17.73;;;;;;;;;;4970022;28;20222;-48
2023/01/09 14:42:08;;;;;;;28.13;16.93;;;;;;;;;;4955267;28;20243;-48
2023/01/09 14:45:00;;;;;;;31.83;18.17;;;;;;;;;;4986461;28;20611;-47
2023/01/09 14:47:30;;;;;;;87.07;34.87;;;;;;;;;;4988533;28;20230;-51
2023/01/09 14:50:03;;;;;;;40.90;28.53;;;;;;;;;;4955746;28;20230;-49
2023/01/09 14:52:56;;;;;;;42.90;24.93;;;;;;;;;;4955417;28;20219;-48
2023/01/09 14:55:29;;;;;;;35.60;18.27;;;;;;;;;;4956321;28;20306;-46
2023/01/09 14:58:29;;;;;;;48.30;20.67;;;;;;;;;;4969239;28;20231;-47
2023/01/09 15:01:06;;;;;;;41.90;20.83;;;;;;;;;;4953712;28;20231;-47
2023/01/09 15:03:57;;;;;;;41.95;19.88;;;;;;;;;;4961265;28;20524;-49